createdAt,value
2023-10-22T00:00:15.238Z,98.85
2023-10-22T00:03:01.962Z,98.98
2023-10-22T00:05:28.955Z,98.99
2023-10-22T00:07:55.556Z,99.09
2023-10-22T00:10:22.276Z,99.11
2023-10-22T00:12:49.072Z,99.13
2023-10-22T00:15:15.889Z,99.14
2023-10-22T00:17:42.610Z,99.15
2023-10-22T00:20:10.549Z,99.16
2023-10-22T00:22:37.218Z,99.21
2023-10-22T00:25:04.410Z,99.24
2023-10-22T00:27:31.099Z,99.35
2023-10-22T00:29:57.712Z,99.25
2023-10-22T00:32:24.568Z,99.14
2023-10-22T00:34:51.094Z,99.13
2023-10-22T00:37:17.797Z,99.20
2023-10-22T00:39:44.343Z,99.15
2023-10-22T00:42:11.343Z,99.12
2023-10-22T00:44:38.501Z,98.96
2023-10-22T00:47:06.952Z,99.08
2023-10-22T00:49:35.008Z,99.03
2023-10-22T00:52:02.166Z,99.11
2023-10-22T00:54:29.173Z,99.29
2023-10-22T00:56:56.168Z,99.28
2023-10-22T00:59:24.273Z,99.29
2023-10-22T01:01:51.510Z,99.47
2023-10-22T01:04:18.603Z,99.52
2023-10-22T01:06:45.991Z,99.49
2023-10-22T01:09:13.573Z,99.49
2023-10-22T01:12:01.128Z,99.47
2023-10-22T01:14:29.420Z,99.46
2023-10-22T01:16:56.143Z,99.48
2023-10-22T01:19:23.064Z,99.56
2023-10-22T01:21:50.102Z,99.61
2023-10-22T01:24:16.781Z,99.57
2023-10-22T01:26:44.705Z,99.67
2023-10-22T01:29:11.748Z,99.65
2023-10-22T01:31:39.056Z,99.64
2023-10-22T01:34:05.876Z,99.66
2023-10-22T01:36:32.555Z,99.65
2023-10-22T01:38:59.108Z,99.61
2023-10-22T01:41:26.592Z,99.62
2023-10-22T01:43:54.490Z,99.66
2023-10-22T01:46:21.306Z,99.67
2023-10-22T01:48:47.968Z,99.66
2023-10-22T01:51:14.870Z,99.77
2023-10-22T01:53:42.762Z,99.73
2023-10-22T01:56:10.007Z,99.74
2023-10-22T01:58:36.558Z,99.78
2023-10-22T02:01:04.194Z,99.62
2023-10-22T02:03:34.503Z,99.66
2023-10-22T02:06:02.941Z,99.60
2023-10-22T02:08:29.694Z,99.57
2023-10-22T02:10:56.487Z,99.64
2023-10-22T02:13:23.152Z,99.73
2023-10-22T02:15:50.496Z,99.63
2023-10-22T02:18:17.614Z,99.49
2023-10-22T02:20:59.967Z,99.62
2023-10-22T02:23:27.957Z,99.55
2023-10-22T02:25:54.678Z,99.60
2023-10-22T02:28:21.640Z,99.55
2023-10-22T02:30:48.449Z,99.41
2023-10-22T02:33:15.846Z,99.43
2023-10-22T02:35:45.214Z,99.28
2023-10-22T02:38:16.109Z,99.39
2023-10-22T02:40:44.085Z,99.21
2023-10-22T02:43:11.960Z,99.18
2023-10-22T02:45:38.720Z,99.08
2023-10-22T02:48:05.853Z,98.96
2023-10-22T02:50:32.493Z,98.94
2023-10-22T02:52:59.112Z,98.73
2023-10-22T02:55:25.728Z,98.76
2023-10-22T02:57:52.645Z,98.88
2023-10-22T03:00:29.646Z,98.85
2023-10-22T03:03:04.451Z,98.76
2023-10-22T03:05:34.798Z,98.76
2023-10-22T03:08:02.018Z,98.87
2023-10-22T03:10:28.634Z,98.68
2023-10-22T03:12:55.937Z,98.63
2023-10-22T03:15:22.562Z,98.63
2023-10-22T03:17:49.539Z,98.70
2023-10-22T03:20:18.696Z,98.71
2023-10-22T03:22:45.281Z,98.96
2023-10-22T03:25:17.258Z,98.96
2023-10-22T03:27:45.835Z,98.94
2023-10-22T03:30:14.111Z,99.01
2023-10-22T03:32:40.804Z,98.96
2023-10-22T03:35:08.397Z,99.00
2023-10-22T03:37:35.488Z,99.01
2023-10-22T03:40:02.617Z,99.02
2023-10-22T03:42:29.367Z,99.09
2023-10-22T03:44:56.321Z,99.00
2023-10-22T03:47:23.821Z,99.02
2023-10-22T03:49:51.935Z,99.03
2023-10-22T03:52:18.562Z,99.10
2023-10-22T03:54:45.242Z,99.10
2023-10-22T03:57:11.953Z,99.06
2023-10-22T03:59:38.842Z,99.16
2023-10-22T04:02:05.516Z,99.17
2023-10-22T04:04:32.156Z,99.12
2023-10-22T04:06:58.888Z,99.16
2023-10-22T04:09:25.440Z,99.31
2023-10-22T04:11:52.164Z,99.26
2023-10-22T04:14:18.730Z,99.25
2023-10-22T04:16:45.277Z,99.25
2023-10-22T04:19:12.131Z,99.28
2023-10-22T04:21:40.135Z,99.24
2023-10-22T04:24:07.348Z,99.35
2023-10-22T04:26:34.424Z,99.43
2023-10-22T04:29:02.508Z,99.35
2023-10-22T04:31:29.259Z,99.28
2023-10-22T04:33:56.029Z,99.44
2023-10-22T04:36:22.636Z,99.48
2023-10-22T04:38:49.310Z,99.44
2023-10-22T04:41:15.997Z,99.49
2023-10-22T04:43:42.931Z,99.62
2023-10-22T04:46:09.732Z,99.62
2023-10-22T04:48:36.557Z,99.81
2023-10-22T04:51:06.955Z,99.78
2023-10-22T04:53:36.658Z,99.76
2023-10-22T04:56:05.326Z,99.83
2023-10-22T04:58:33.551Z,100.00
2023-10-22T05:01:00.077Z,100.00
2023-10-22T05:03:26.847Z,100.00
2023-10-22T05:05:53.541Z,99.92
2023-10-22T05:08:23.191Z,100.00
2023-10-22T05:10:49.837Z,100.00
2023-10-22T05:13:16.489Z,100.00
2023-10-22T05:15:50.681Z,100.00
2023-10-22T05:18:18.351Z,100.00
2023-10-22T05:20:45.023Z,100.00
2023-10-22T05:23:11.590Z,100.00
2023-10-22T05:25:38.412Z,100.00
2023-10-22T05:28:04.915Z,100.00
2023-10-22T05:30:32.452Z,100.00
2023-10-22T05:33:00.333Z,100.00
2023-10-22T05:35:27.504Z,100.00
2023-10-22T05:37:54.219Z,100.00
2023-10-22T05:40:20.858Z,100.00
2023-10-22T05:42:47.466Z,100.00
2023-10-22T05:45:14.091Z,100.00
2023-10-22T05:47:41.027Z,100.00
2023-10-22T05:50:08.273Z,100.00
2023-10-22T05:52:35.063Z,100.00
2023-10-22T05:55:01.924Z,100.00
2023-10-22T05:57:29.032Z,100.00
2023-10-22T05:59:58.196Z,100.00
2023-10-22T06:02:25.226Z,100.00
2023-10-22T06:04:51.945Z,100.00
2023-10-22T06:07:18.666Z,100.00
2023-10-22T06:09:45.179Z,100.00
2023-10-22T06:12:11.772Z,100.00
2023-10-22T06:14:38.813Z,100.00
2023-10-22T06:17:05.664Z,100.00
2023-10-22T06:19:32.222Z,100.00
2023-10-22T06:21:59.067Z,100.00
2023-10-22T06:24:25.929Z,100.00
2023-10-22T06:26:52.705Z,100.00
2023-10-22T06:29:19.293Z,100.00
2023-10-22T06:31:46.097Z,100.00
2023-10-22T06:34:12.823Z,100.00
2023-10-22T06:36:39.557Z,100.00
2023-10-22T06:39:06.195Z,100.00
2023-10-22T06:41:32.829Z,100.00
2023-10-22T06:43:59.443Z,100.00
2023-10-22T06:46:26.279Z,100.00
2023-10-22T06:48:52.984Z,100.00
2023-10-22T06:51:19.779Z,100.00
2023-10-22T06:53:47.488Z,100.00
2023-10-22T06:56:14.827Z,100.00
2023-10-22T06:58:41.906Z,100.00
2023-10-22T07:01:10.177Z,100.00
2023-10-22T07:03:38.944Z,100.00
2023-10-22T07:06:06.047Z,100.00
2023-10-22T07:08:33.102Z,100.00
2023-10-22T07:11:00.640Z,100.00
2023-10-22T07:13:27.821Z,100.00
2023-10-22T07:15:55.391Z,100.00
2023-10-22T07:18:22.591Z,100.00
2023-10-22T07:20:49.810Z,100.00
2023-10-22T07:23:16.496Z,100.00
2023-10-22T07:25:43.993Z,100.00
2023-10-22T07:28:12.875Z,100.00
2023-10-22T07:30:49.559Z,100.00
2023-10-22T07:33:19.372Z,100.00
2023-10-22T07:35:56.393Z,100.00
2023-10-22T07:38:24.978Z,100.00
2023-10-22T07:40:56.650Z,100.00
2023-10-22T07:43:24.928Z,100.00
2023-10-22T07:45:52.089Z,100.00
2023-10-22T07:48:19.151Z,100.00
2023-10-22T07:50:47.550Z,100.00
2023-10-22T07:53:15.207Z,100.00
2023-10-22T07:55:43.161Z,100.00
2023-10-22T07:58:09.853Z,100.00
2023-10-22T08:00:36.710Z,100.00
2023-10-22T08:03:04.277Z,100.00
2023-10-22T08:05:32.444Z,100.00
2023-10-22T08:07:59.308Z,100.00
2023-10-22T08:10:26.062Z,100.00
2023-10-22T08:12:52.814Z,100.00
2023-10-22T08:15:19.606Z,100.00
2023-10-22T08:17:48.579Z,100.00
2023-10-22T08:20:15.879Z,100.00
2023-10-22T08:22:42.979Z,100.00
2023-10-22T08:25:09.766Z,100.00
2023-10-22T08:27:36.465Z,100.00
2023-10-22T08:30:03.780Z,100.00
2023-10-22T08:32:35.853Z,100.00
2023-10-22T08:35:03.900Z,100.00
2023-10-22T08:37:33.590Z,100.00
2023-10-22T08:40:00.969Z,100.00
2023-10-22T08:42:28.655Z,100.00
2023-10-22T08:44:55.981Z,100.00
2023-10-22T08:47:25.609Z,100.00
2023-10-22T08:49:55.315Z,100.00
2023-10-22T08:52:22.653Z,100.00
2023-10-22T08:54:49.771Z,100.00
2023-10-22T08:57:17.025Z,100.00
2023-10-22T08:59:45.017Z,100.00
2023-10-22T09:02:13.549Z,100.00
2023-10-22T09:04:40.985Z,100.00
2023-10-22T09:07:08.232Z,100.00
2023-10-22T09:09:37.596Z,100.00
2023-10-22T09:12:09.085Z,100.00
2023-10-22T09:14:36.170Z,100.00
2023-10-22T09:17:21.581Z,100.00
2023-10-22T09:19:51.164Z,100.00
2023-10-22T09:22:23.325Z,100.00
2023-10-22T09:25:00.713Z,100.00
2023-10-22T09:27:29.552Z,100.00
2023-10-22T09:30:01.041Z,100.00
2023-10-22T09:32:30.707Z,100.00
2023-10-22T09:35:14.080Z,100.00
2023-10-22T09:37:51.346Z,100.00
2023-10-22T09:40:23.218Z,100.00
2023-10-22T09:42:50.864Z,100.00
2023-10-22T09:45:24.749Z,100.00
2023-10-22T09:48:10.844Z,100.00
2023-10-22T09:50:46.502Z,100.00
2023-10-22T09:53:17.952Z,100.00
2023-10-22T09:55:49.324Z,100.00
2023-10-22T09:58:21.999Z,100.00
2023-10-22T10:00:52.111Z,100.00
2023-10-22T10:03:22.081Z,100.00
2023-10-22T10:05:53.131Z,100.00
2023-10-22T10:08:20.708Z,100.00
2023-10-22T10:10:48.656Z,100.00
2023-10-22T10:13:15.898Z,100.00
2023-10-22T10:15:42.845Z,100.00
2023-10-22T10:18:10.761Z,100.00
2023-10-22T10:20:41.691Z,100.00
2023-10-22T10:23:27.379Z,100.00
2023-10-22T10:25:54.699Z,100.00
2023-10-22T10:28:40.243Z,100.00
2023-10-22T10:31:27.945Z,100.00
2023-10-22T10:34:03.785Z,100.00
2023-10-22T10:36:32.368Z,100.00
2023-10-22T10:39:37.290Z,100.00
2023-10-22T10:42:04.690Z,100.00
2023-10-22T10:44:32.192Z,100.00
2023-10-22T10:47:22.262Z,100.00
2023-10-22T10:49:51.677Z,100.00
2023-10-22T10:52:18.499Z,100.00
2023-10-22T10:55:31.014Z,100.00
2023-10-22T10:57:57.690Z,100.00
2023-10-22T11:00:30.204Z,100.00
2023-10-22T11:02:59.460Z,100.00
2023-10-22T11:05:44.722Z,100.00
2023-10-22T11:08:16.392Z,100.00
2023-10-22T11:10:43.201Z,100.00
2023-10-22T11:13:09.976Z,100.00
2023-10-22T11:15:38.159Z,100.00
2023-10-22T11:18:07.719Z,100.00
2023-10-22T11:20:34.954Z,100.00
2023-10-22T11:23:02.711Z,100.00
2023-10-22T11:25:30.785Z,100.00
2023-10-22T11:27:59.343Z,100.00
2023-10-22T11:30:42.610Z,100.00
2023-10-22T11:33:34.040Z,100.00
2023-10-22T11:36:01.312Z,100.00
2023-10-22T11:38:28.443Z,100.00
2023-10-22T11:40:56.135Z,100.00
2023-10-22T11:43:27.090Z,100.00
2023-10-22T11:45:56.046Z,100.00
2023-10-22T11:48:24.988Z,100.00
2023-10-22T11:50:58.098Z,100.00
2023-10-22T11:53:29.888Z,100.00
2023-10-22T11:55:56.954Z,100.00
2023-10-22T11:58:28.586Z,100.00
2023-10-22T17:20:42.519Z,100.00
2023-10-22T17:23:10.990Z,100.00
2023-10-22T17:25:50.553Z,100.00
2023-10-22T17:28:20.252Z,100.00
2023-10-22T17:30:48.622Z,100.00
2023-10-22T17:33:16.666Z,100.00
2023-10-22T17:35:57.135Z,100.00
2023-10-22T17:38:25.848Z,100.00
2023-10-22T17:41:01.218Z,100.00
2023-10-22T17:43:29.705Z,100.00
2023-10-22T17:45:57.929Z,100.00
2023-10-22T17:48:26.191Z,100.00
2023-10-22T17:51:05.184Z,100.00
2023-10-22T17:53:33.385Z,100.00
2023-10-22T17:56:08.941Z,100.00
2023-10-22T17:58:39.635Z,100.00
2023-10-22T18:01:08.007Z,100.00
2023-10-22T18:03:38.647Z,100.00
2023-10-22T18:06:08.354Z,100.00
2023-10-22T18:08:36.804Z,100.00
2023-10-22T18:11:05.238Z,100.00
2023-10-22T18:13:33.984Z,100.00
2023-10-22T18:16:02.133Z,100.00
2023-10-22T18:18:31.137Z,100.00
2023-10-22T18:21:04.068Z,100.00
2023-10-22T18:23:33.654Z,100.00
2023-10-22T18:26:06.677Z,100.00
2023-10-22T18:28:35.401Z,100.00
2023-10-22T18:31:07.936Z,100.00
2023-10-22T18:33:38.179Z,100.00
2023-10-22T18:36:10.061Z,100.00
2023-10-22T18:38:40.128Z,100.00
2023-10-22T18:41:16.568Z,100.00
2023-10-22T18:43:47.625Z,100.00
2023-10-22T18:46:17.645Z,100.00
2023-10-22T18:48:48.129Z,100.00
2023-10-22T18:51:16.827Z,100.00
2023-10-22T18:53:45.584Z,100.00
2023-10-22T18:56:14.039Z,100.00
2023-10-22T18:58:42.357Z,100.00
2023-10-22T19:01:24.911Z,100.00
2023-10-22T19:03:58.558Z,100.00
2023-10-22T19:06:31.926Z,100.00
2023-10-22T19:09:03.971Z,100.00
2023-10-22T19:11:32.594Z,100.00
2023-10-22T19:14:00.746Z,100.00
2023-10-22T19:16:34.449Z,100.00
2023-10-22T19:19:02.595Z,100.00
2023-10-22T19:21:32.115Z,100.00
2023-10-22T19:24:00.268Z,100.00
2023-10-22T19:26:30.759Z,100.00
2023-10-22T19:28:58.798Z,100.00
2023-10-22T19:31:26.943Z,100.00
2023-10-22T19:33:55.195Z,100.00
2023-10-22T19:36:23.467Z,100.00
2023-10-22T19:38:51.796Z,100.00
2023-10-22T19:41:22.704Z,100.00
2023-10-22T19:43:52.411Z,100.00
2023-10-22T19:46:22.178Z,100.00
2023-10-22T19:48:50.358Z,100.00
2023-10-22T19:51:19.367Z,100.00
2023-10-22T19:53:47.489Z,100.00
2023-10-22T19:56:19.833Z,100.00
2023-10-22T19:58:49.625Z,100.00
2023-10-22T20:01:24.708Z,100.00
2023-10-22T20:03:54.667Z,100.00
2023-10-22T20:06:24.021Z,100.00
2023-10-22T20:08:53.476Z,100.00
2023-10-22T20:11:22.479Z,100.00
2023-10-22T20:13:51.064Z,100.00
2023-10-22T20:16:21.241Z,100.00
2023-10-22T20:18:50.694Z,100.00
2023-10-22T20:21:20.297Z,100.00
2023-10-22T20:23:49.866Z,100.00
2023-10-22T20:26:18.317Z,100.00
2023-10-22T20:28:47.175Z,100.00
2023-10-22T20:31:15.996Z,100.00
2023-10-22T20:33:46.252Z,100.00
2023-10-22T20:36:17.503Z,100.00
2023-10-22T20:38:45.823Z,100.00
2023-10-22T20:41:14.702Z,100.00
2023-10-22T20:43:44.047Z,100.00
2023-10-22T20:46:12.706Z,100.00
2023-10-22T20:48:40.969Z,100.00
2023-10-22T20:51:10.706Z,100.00
2023-10-22T20:53:40.269Z,100.00
2023-10-22T20:56:10.383Z,100.00
2023-10-22T20:58:43.226Z,100.00
2023-10-22T21:01:29.671Z,100.00
2023-10-22T21:03:59.696Z,100.00
2023-10-22T21:06:28.387Z,100.00
2023-10-22T21:08:58.103Z,100.00
2023-10-22T21:11:26.117Z,100.00
2023-10-22T21:13:54.071Z,100.00
2023-10-22T21:16:22.206Z,100.00
2023-10-22T21:18:50.437Z,100.00
2023-10-22T21:21:18.526Z,100.00
2023-10-22T21:23:46.525Z,100.00
2023-10-22T21:26:14.549Z,100.00
2023-10-22T21:28:45.184Z,100.00
2023-10-22T21:31:13.091Z,100.00
2023-10-22T21:33:41.133Z,100.00
2023-10-22T21:36:10.868Z,100.00
2023-10-22T21:38:39.974Z,100.00
2023-10-22T21:41:17.669Z,100.00
2023-10-22T21:43:45.634Z,100.00
2023-10-22T21:46:13.850Z,100.00
2023-10-22T21:48:42.696Z,100.00
2023-10-22T21:51:10.792Z,100.00
2023-10-22T21:53:39.412Z,100.00
2023-10-22T21:56:07.560Z,100.00
2023-10-22T21:58:35.723Z,100.00
2023-10-22T22:01:05.428Z,100.00
2023-10-22T22:03:33.992Z,100.00
2023-10-22T22:06:02.316Z,100.00
2023-10-22T22:08:30.451Z,100.00
2023-10-22T22:10:58.516Z,100.00
2023-10-22T22:13:26.737Z,100.00
2023-10-22T22:15:54.874Z,100.00
2023-10-22T22:18:22.968Z,100.00
2023-10-22T22:20:51.150Z,100.00
2023-10-22T22:23:19.257Z,100.00
2023-10-22T22:25:47.519Z,100.00
2023-10-22T22:28:15.675Z,100.00
2023-10-22T22:30:43.807Z,100.00
2023-10-22T22:33:12.242Z,100.00
2023-10-22T22:35:40.458Z,100.00
2023-10-22T22:38:08.804Z,100.00
2023-10-22T22:40:36.773Z,100.00
2023-10-22T22:43:04.870Z,100.00
2023-10-22T22:45:33.040Z,100.00
2023-10-22T22:48:01.155Z,100.00
2023-10-22T22:50:29.271Z,100.00
2023-10-22T22:52:57.493Z,100.00
2023-10-22T22:55:25.526Z,100.00
2023-10-22T22:57:53.685Z,100.00
2023-10-22T23:00:21.952Z,100.00
2023-10-22T23:02:50.093Z,100.00
2023-10-22T23:05:18.776Z,100.00
2023-10-22T23:07:47.721Z,100.00
2023-10-22T23:10:15.727Z,100.00
2023-10-22T23:12:43.713Z,100.00
2023-10-22T23:15:11.850Z,100.00
2023-10-22T23:17:39.834Z,100.00
2023-10-22T23:20:08.430Z,100.00
2023-10-22T23:22:36.324Z,100.00
2023-10-22T23:25:04.544Z,100.00
2023-10-22T23:27:32.582Z,100.00
2023-10-22T23:30:00.873Z,100.00
2023-10-22T23:32:28.944Z,100.00
2023-10-22T23:34:57.011Z,100.00
2023-10-22T23:37:25.021Z,100.00
2023-10-22T23:39:53.009Z,100.00
2023-10-22T23:42:20.876Z,100.00
2023-10-22T23:44:49.138Z,100.00
2023-10-22T23:47:17.417Z,100.00
2023-10-22T23:49:45.354Z,100.00
2023-10-22T23:52:13.238Z,100.00
2023-10-22T23:54:41.541Z,100.00
2023-10-22T23:57:09.744Z,100.00
2023-10-22T23:59:37.680Z,100.00
